createdAt,value
2018-10-12T00:00:29.771Z,99.99
2018-10-12T00:01:29.799Z,99.99
2018-10-12T00:02:29.796Z,99.99
2018-10-12T00:03:29.811Z,99.99
2018-10-12T00:04:29.827Z,99.99
2018-10-12T00:05:29.865Z,99.99
2018-10-12T00:06:29.831Z,99.94
2018-10-12T00:07:29.877Z,99.99
2018-10-12T00:08:29.894Z,99.55
2018-10-12T00:09:29.900Z,99.99
2018-10-12T00:10:29.946Z,99.70
2018-10-12T00:11:29.950Z,99.85
2018-10-12T00:12:29.968Z,99.17
2018-10-12T00:13:29.973Z,99.36
2018-10-12T00:14:30.017Z,98.93
2018-10-12T00:15:29.993Z,99.41
2018-10-12T00:16:30.049Z,99.60
2018-10-12T00:17:30.054Z,99.60
2018-10-12T00:18:30.090Z,99.31
2018-10-12T00:19:30.093Z,99.55
2018-10-12T00:20:30.106Z,99.36
2018-10-12T00:21:30.122Z,99.17
2018-10-12T00:22:30.146Z,99.26
2018-10-12T00:23:30.128Z,99.36
2018-10-12T00:24:30.175Z,97.71
2018-10-12T00:25:30.204Z,97.81
2018-10-12T00:26:30.190Z,98.39
2018-10-12T00:27:30.231Z,97.81
2018-10-12T00:28:30.286Z,97.91
2018-10-12T00:29:30.278Z,97.91
2018-10-12T00:30:30.254Z,97.81
2018-10-12T00:31:30.289Z,98.10
2018-10-12T00:32:30.322Z,97.42
2018-10-12T00:33:30.331Z,97.52
2018-10-12T00:34:30.363Z,96.36
2018-10-12T00:35:30.386Z,96.07
2018-10-12T00:36:30.375Z,98.20
2018-10-12T00:37:30.406Z,98.20
2018-10-12T00:38:30.430Z,95.97
2018-10-12T00:39:30.452Z,95.97
2018-10-12T00:40:30.456Z,95.87
2018-10-12T00:41:30.488Z,96.36
2018-10-12T00:42:30.508Z,94.90
2018-10-12T00:43:30.528Z,95.87
2018-10-12T00:44:30.544Z,95.68
2018-10-12T00:45:30.537Z,93.35
2018-10-12T00:46:30.635Z,94.13
2018-10-12T00:47:30.596Z,95.49
2018-10-12T00:48:30.611Z,94.71
2018-10-12T00:49:30.613Z,93.35
2018-10-12T00:50:30.638Z,92.97
2018-10-12T00:51:30.670Z,93.50
2018-10-12T00:52:30.681Z,93.35
2018-10-12T00:53:30.679Z,93.26
2018-10-12T00:54:30.709Z,92.53
2018-10-12T00:55:30.727Z,92.24
2018-10-12T00:56:30.740Z,94.37
2018-10-12T00:57:30.777Z,93.79
2018-10-12T00:58:30.749Z,93.88
2018-10-12T00:59:30.797Z,92.14
2018-10-12T01:00:31.356Z,94.37
2018-10-12T01:01:30.848Z,94.66
2018-10-12T01:02:30.862Z,93.70
2018-10-12T01:03:30.861Z,91.66
2018-10-12T01:04:30.885Z,91.85
2018-10-12T01:05:30.900Z,92.14
2018-10-12T01:06:30.978Z,92.72
2018-10-12T01:07:30.914Z,92.53
2018-10-12T01:08:30.977Z,93.21
2018-10-12T01:09:30.976Z,93.40
2018-10-12T01:10:30.993Z,91.66
2018-10-12T01:11:30.983Z,91.37
2018-10-12T01:12:31.027Z,92.24
2018-10-12T01:13:31.046Z,92.05
2018-10-12T01:14:31.037Z,90.59
2018-10-12T01:15:31.071Z,91.02
2018-10-12T01:16:31.102Z,90.98
2018-10-12T01:17:31.091Z,90.50
2018-10-12T01:18:31.124Z,90.59
2018-10-12T01:19:31.172Z,90.98
2018-10-12T01:20:31.184Z,90.20
2018-10-12T01:21:31.199Z,90.69
2018-10-12T01:22:31.184Z,91.71
2018-10-12T01:23:31.230Z,91.52
2018-10-12T01:24:31.257Z,91.13
2018-10-12T01:25:31.260Z,91.81
2018-10-12T01:26:31.287Z,91.32
2018-10-12T01:27:31.306Z,91.08
2018-10-12T01:28:31.342Z,90.01
2018-10-12T01:29:31.355Z,89.72
2018-10-12T01:30:31.352Z,88.37
2018-10-12T01:31:31.373Z,89.04
2018-10-12T01:32:31.393Z,90.50
2018-10-12T01:33:31.413Z,90.06
2018-10-12T01:34:31.430Z,90.78
2018-10-12T01:35:31.412Z,91.12
2018-10-12T01:36:31.464Z,89.47
2018-10-12T01:37:31.477Z,88.79
2018-10-12T01:38:31.509Z,88.51
2018-10-12T01:39:31.515Z,87.40
2018-10-12T01:40:31.537Z,86.62
2018-10-12T01:41:31.552Z,86.33
2018-10-12T01:42:31.590Z,86.04
2018-10-12T01:43:31.599Z,86.52
2018-10-12T01:44:31.575Z,88.17
2018-10-12T01:45:31.620Z,85.07
2018-10-12T01:46:31.627Z,86.86
2018-10-12T01:47:31.673Z,85.75
2018-10-12T01:48:31.677Z,86.33
2018-10-12T01:49:31.692Z,85.89
2018-10-12T01:50:31.699Z,87.44
2018-10-12T01:51:31.745Z,86.57
2018-10-12T01:52:31.737Z,85.99
2018-10-12T01:53:31.769Z,86.27
2018-10-12T01:54:31.786Z,86.47
2018-10-12T01:55:31.814Z,86.18
2018-10-12T01:56:31.830Z,85.89
2018-10-12T01:57:31.853Z,84.53
2018-10-12T01:58:31.858Z,85.99
2018-10-12T01:59:31.882Z,85.69
2018-10-12T02:00:31.929Z,85.50
2018-10-12T02:01:31.764Z,85.30
2018-10-12T02:02:31.776Z,86.22
2018-10-12T02:03:31.798Z,83.50
2018-10-12T02:04:31.812Z,82.59
2018-10-12T02:05:31.830Z,83.17
2018-10-12T02:06:31.849Z,82.40
2018-10-12T02:07:31.869Z,84.05
2018-10-12T02:08:31.886Z,83.27
2018-10-12T02:09:31.908Z,81.82
2018-10-12T02:10:31.924Z,83.17
2018-10-12T02:11:31.939Z,82.98
2018-10-12T02:12:31.960Z,82.69
2018-10-12T02:13:31.978Z,82.20
2018-10-12T02:14:31.996Z,82.10
2018-10-12T02:15:32.077Z,81.52
2018-10-12T02:16:32.040Z,84.63
2018-10-12T02:17:32.056Z,82.50
2018-10-12T02:18:32.077Z,82.98
2018-10-12T02:19:32.095Z,82.40
2018-10-12T02:20:32.121Z,82.88
2018-10-12T02:21:32.126Z,82.78
2018-10-12T02:22:32.141Z,82.50
2018-10-12T02:23:32.171Z,81.91
2018-10-12T02:24:32.187Z,80.85
2018-10-12T02:25:32.198Z,82.30
2018-10-12T02:26:32.221Z,84.24
2018-10-12T02:27:32.234Z,84.05
2018-10-12T02:28:32.250Z,82.40
2018-10-12T02:29:32.283Z,80.46
2018-10-12T02:30:32.288Z,81.23
2018-10-12T02:31:32.308Z,81.72
2018-10-12T02:32:32.325Z,81.23
2018-10-12T02:33:33.039Z,81.27
2018-10-12T02:34:32.369Z,80.50
2018-10-12T02:35:32.383Z,80.21
2018-10-12T02:36:32.410Z,81.27
2018-10-12T02:37:32.439Z,81.70
2018-10-12T02:38:32.433Z,80.73
2018-10-12T02:39:32.454Z,80.34
2018-10-12T02:40:32.468Z,80.38
2018-10-12T02:41:32.494Z,79.32
2018-10-12T02:42:33.282Z,79.12
2018-10-12T02:43:32.525Z,79.12
2018-10-12T02:44:32.552Z,79.57
2018-10-12T02:45:32.567Z,78.50
2018-10-12T02:46:32.580Z,79.18
2018-10-12T02:47:32.602Z,79.47
2018-10-12T02:48:32.619Z,79.08
2018-10-12T02:49:32.638Z,80.44
2018-10-12T02:50:32.657Z,79.51
2018-10-12T02:51:32.727Z,78.73
2018-10-12T02:52:32.696Z,79.41
2018-10-12T02:53:32.710Z,79.12
2018-10-12T02:54:32.729Z,77.37
2018-10-12T02:55:32.754Z,78.83
2018-10-12T02:56:32.776Z,77.62
2018-10-12T02:57:32.793Z,78.79
2018-10-12T02:58:32.807Z,80.73
2018-10-12T02:59:32.828Z,80.73
2018-10-12T03:00:32.850Z,78.69
2018-10-12T03:01:32.864Z,80.15
2018-10-12T03:02:32.881Z,80.54
2018-10-12T03:03:32.902Z,79.37
2018-10-12T03:04:32.959Z,79.37
2018-10-12T03:05:32.939Z,78.69
2018-10-12T03:06:32.957Z,79.28
2018-10-12T03:07:32.977Z,79.71
2018-10-12T03:08:32.996Z,79.86
2018-10-12T03:09:33.009Z,81.93
2018-10-12T03:10:33.032Z,79.51
2018-10-12T03:11:33.052Z,77.95
2018-10-12T03:12:33.071Z,77.76
2018-10-12T03:13:33.094Z,77.08
2018-10-12T03:14:33.119Z,76.50
2018-10-12T03:15:33.131Z,76.15
2018-10-12T03:16:33.145Z,75.92
2018-10-12T03:17:33.163Z,77.57
2018-10-12T03:18:33.179Z,76.01
2018-10-12T03:19:33.202Z,75.53
2018-10-12T03:20:33.222Z,75.43
2018-10-12T03:21:35.801Z,76.21
2018-10-12T03:22:33.255Z,77.47
2018-10-12T03:23:33.279Z,76.37
2018-10-12T03:24:33.297Z,77.08
2018-10-12T03:25:33.316Z,77.95
2018-10-12T03:26:33.337Z,76.69
2018-10-12T03:27:33.355Z,75.04
2018-10-12T03:28:33.374Z,74.95
2018-10-12T03:29:33.391Z,75.82
2018-10-12T03:30:33.410Z,76.27
2018-10-12T03:31:33.433Z,76.01
2018-10-12T03:32:33.449Z,77.57
2018-10-12T03:33:33.469Z,77.08
2018-10-12T03:34:33.491Z,77.37
2018-10-12T03:35:33.508Z,76.95
2018-10-12T03:36:33.527Z,77.24
2018-10-12T03:37:33.551Z,79.57
2018-10-12T03:38:33.563Z,78.11
2018-10-12T03:39:33.583Z,79.82
2018-10-12T03:40:33.607Z,80.21
2018-10-12T03:41:33.620Z,78.85
2018-10-12T03:42:33.639Z,78.94
2018-10-12T03:43:33.661Z,79.08
2018-10-12T03:44:33.677Z,79.47
2018-10-12T03:45:33.720Z,79.08
2018-10-12T03:46:33.723Z,79.08
2018-10-12T03:47:33.746Z,79.66
2018-10-12T03:48:33.753Z,79.86
2018-10-12T03:49:33.775Z,79.37
2018-10-12T03:50:33.789Z,80.05
2018-10-12T03:51:33.808Z,79.18
2018-10-12T03:52:33.827Z,79.28
2018-10-12T03:53:33.847Z,81.90
2018-10-12T03:54:33.865Z,80.73
2018-10-12T03:55:33.886Z,79.76
2018-10-12T03:56:33.901Z,80.60
2018-10-12T03:57:33.920Z,83.22
2018-10-12T03:58:33.996Z,83.60
2018-10-12T03:59:33.957Z,83.35
2018-10-12T04:00:33.974Z,84.32
2018-10-12T04:01:33.993Z,83.35
2018-10-12T04:02:34.049Z,81.51
2018-10-12T04:03:34.033Z,80.83
2018-10-12T04:04:34.050Z,79.80
2018-10-12T04:05:34.069Z,78.50
2018-10-12T04:06:34.088Z,79.02
2018-10-12T04:07:34.106Z,78.79
2018-10-12T04:08:34.125Z,79.47
2018-10-12T04:09:34.146Z,78.15
2018-10-12T04:10:34.163Z,78.02
2018-10-12T04:11:34.181Z,80.19
2018-10-12T04:12:34.211Z,79.02
2018-10-12T04:13:34.217Z,78.99
2018-10-12T04:14:34.236Z,79.51
2018-10-12T04:15:34.279Z,78.54
2018-10-12T04:16:34.275Z,78.21
2018-10-12T04:17:34.293Z,76.75
2018-10-12T04:18:34.349Z,79.08
2018-10-12T04:19:34.331Z,79.08
2018-10-12T04:20:34.347Z,80.05
2018-10-12T04:21:35.094Z,79.37
2018-10-12T04:22:34.386Z,79.18
2018-10-12T04:23:34.414Z,79.57
2018-10-12T04:24:34.424Z,79.37
2018-10-12T04:25:34.444Z,79.12
2018-10-12T04:26:34.463Z,79.32
2018-10-12T04:27:35.336Z,79.41
2018-10-12T04:28:34.502Z,79.25
2018-10-12T04:29:34.523Z,78.87
2018-10-12T04:30:34.541Z,77.70
2018-10-12T04:31:34.560Z,77.02
2018-10-12T04:32:34.577Z,77.80
2018-10-12T04:33:34.593Z,77.31
2018-10-12T04:34:34.609Z,76.92
2018-10-12T04:35:34.639Z,75.37
2018-10-12T04:36:34.651Z,77.31
2018-10-12T04:37:34.668Z,77.99
2018-10-12T04:38:34.689Z,77.99
2018-10-12T04:39:34.707Z,77.70
2018-10-12T04:40:34.727Z,78.09
2018-10-12T04:41:34.744Z,77.80
2018-10-12T04:42:34.764Z,77.80
2018-10-12T04:43:34.803Z,78.42
2018-10-12T04:44:34.803Z,78.03
2018-10-12T04:45:34.821Z,76.67
2018-10-12T04:46:34.840Z,78.03
2018-10-12T04:47:34.864Z,79.06
2018-10-12T04:48:34.881Z,78.61
2018-10-12T04:49:34.896Z,76.18
2018-10-12T04:50:34.921Z,77.74
2018-10-12T04:51:34.936Z,76.87
2018-10-12T04:52:34.978Z,76.34
2018-10-12T04:53:35.026Z,77.80
2018-10-12T04:54:34.996Z,77.51
2018-10-12T04:55:35.013Z,77.94
2018-10-12T04:56:35.094Z,77.94
2018-10-12T04:57:35.055Z,77.02
2018-10-12T04:58:35.074Z,76.15
2018-10-12T04:59:35.091Z,77.02
2018-10-12T05:00:35.137Z,76.38
2018-10-12T05:01:35.129Z,75.57
2018-10-12T05:02:35.152Z,78.87
2018-10-12T05:03:35.172Z,77.99
2018-10-12T05:04:35.186Z,77.84
2018-10-12T05:05:35.205Z,78.33
2018-10-12T05:06:35.222Z,78.03
2018-10-12T05:07:35.275Z,79.20
2018-10-12T05:08:35.269Z,77.06
2018-10-12T05:09:35.280Z,77.06
2018-10-12T05:10:35.301Z,79.25
2018-10-12T05:11:35.331Z,80.27
2018-10-12T05:12:35.336Z,76.48
2018-10-12T05:13:35.359Z,75.99
2018-10-12T05:14:35.387Z,76.57
2018-10-12T05:15:35.405Z,76.09
2018-10-12T05:16:35.420Z,76.67
2018-10-12T05:17:35.436Z,76.03
2018-10-12T05:18:35.506Z,77.74
2018-10-12T05:19:35.476Z,74.76
2018-10-12T05:20:35.491Z,75.21
2018-10-12T05:21:35.512Z,73.40
2018-10-12T05:22:35.531Z,74.34
2018-10-12T05:23:35.550Z,74.73
2018-10-12T05:24:35.567Z,75.05
2018-10-12T05:25:35.586Z,75.41
2018-10-12T05:26:35.608Z,74.92
2018-10-12T05:27:35.626Z,76.09
2018-10-12T05:28:35.648Z,74.92
2018-10-12T05:29:35.664Z,74.82
2018-10-12T05:30:35.691Z,75.21
2018-10-12T05:31:35.702Z,75.02
2018-10-12T05:32:35.724Z,75.41
2018-10-12T05:33:35.740Z,74.38
2018-10-12T05:34:35.760Z,74.38
2018-10-12T05:35:35.780Z,75.02
2018-10-12T05:36:35.849Z,75.02
2018-10-12T05:37:35.824Z,74.86
2018-10-12T05:38:35.840Z,74.28
2018-10-12T05:39:35.858Z,74.96
2018-10-12T05:40:35.879Z,72.72
2018-10-12T05:41:35.978Z,72.92
2018-10-12T05:42:35.918Z,74.38
2018-10-12T05:43:36.012Z,75.35
2018-10-12T05:44:35.956Z,75.25
2018-10-12T05:45:36.640Z,75.35
2018-10-12T05:46:35.994Z,75.05
2018-10-12T05:47:36.020Z,75.64
2018-10-12T05:48:36.085Z,75.64
2018-10-12T05:49:36.061Z,75.02
2018-10-12T05:50:36.074Z,74.48
2018-10-12T05:51:36.091Z,74.08
2018-10-12T05:52:36.117Z,75.31
2018-10-12T05:53:36.133Z,76.48
2018-10-12T05:54:36.151Z,76.22
2018-10-12T05:55:36.213Z,77.87
2018-10-12T05:56:36.192Z,76.32
2018-10-12T05:57:36.210Z,77.68
2018-10-12T05:58:36.229Z,77.87
2018-10-12T05:59:36.248Z,74.86
2018-10-12T06:00:36.268Z,75.25
2018-10-12T06:01:36.290Z,75.25
2018-10-12T06:02:36.309Z,74.96
2018-10-12T06:03:36.329Z,75.35
2018-10-12T06:04:36.350Z,75.45
2018-10-12T06:05:36.367Z,74.86
2018-10-12T06:06:36.386Z,75.35
2018-10-12T06:07:36.404Z,76.42
2018-10-12T06:08:36.426Z,74.28
2018-10-12T06:09:36.507Z,76.81
2018-10-12T06:10:36.465Z,76.12
2018-10-12T06:11:36.484Z,76.09
2018-10-12T06:12:36.511Z,77.25
2018-10-12T06:13:36.522Z,75.45
2018-10-12T06:14:36.543Z,75.93
2018-10-12T06:15:36.672Z,75.25
2018-10-12T06:16:36.580Z,74.67
2018-10-12T06:17:36.603Z,74.86
2018-10-12T06:18:36.620Z,75.68
2018-10-12T06:19:36.667Z,75.48
2018-10-12T06:20:37.397Z,75.78
2018-10-12T06:21:36.699Z,77.23
2018-10-12T06:22:36.697Z,76.45
2018-10-12T06:24:36.935Z,75.29
2018-10-12T06:25:36.953Z,74.02
2018-10-12T06:26:37.020Z,75.19
2018-10-12T06:27:36.996Z,74.28
2018-10-12T06:28:37.724Z,73.24
2018-10-12T06:29:37.033Z,73.54
2018-10-12T06:30:38.063Z,75.48
2018-10-12T06:31:37.069Z,74.51
2018-10-12T06:32:37.090Z,74.86
2018-10-12T06:33:37.108Z,76.32
2018-10-12T06:34:37.136Z,75.45
2018-10-12T06:35:37.151Z,75.35
2018-10-12T06:36:38.185Z,75.35
2018-10-12T06:37:37.197Z,76.12
2018-10-12T06:38:37.248Z,77.20
2018-10-12T06:39:37.230Z,77.39
2018-10-12T06:40:37.254Z,75.45
2018-10-12T06:41:37.454Z,75.25
2018-10-12T06:42:38.300Z,74.86
2018-10-12T06:43:37.316Z,76.61
2018-10-12T06:44:37.330Z,76.42
2018-10-12T06:45:37.349Z,77.10
2018-10-12T06:46:37.415Z,74.38
2018-10-12T06:47:37.401Z,75.05
2018-10-12T06:48:38.444Z,75.64
2018-10-12T06:49:37.436Z,75.25
2018-10-12T06:50:37.445Z,76.26
2018-10-12T06:51:37.470Z,80.79
2018-10-12T06:52:37.485Z,80.05
2018-10-12T06:53:37.516Z,78.20
2018-10-12T06:54:38.536Z,78.69
2018-10-12T06:55:37.548Z,75.97
2018-10-12T06:56:37.560Z,73.50
2018-10-12T06:57:37.588Z,75.15
2018-10-12T06:58:37.600Z,75.54
2018-10-12T06:59:37.618Z,76.22
2018-10-12T07:00:38.706Z,74.18
2018-10-12T07:01:38.179Z,74.08
2018-10-12T07:02:37.684Z,75.93
2018-10-12T07:03:37.702Z,78.01
2018-10-12T07:04:37.719Z,76.75
2018-10-12T07:05:37.768Z,78.11
2018-10-12T07:06:38.774Z,76.07
2018-10-12T07:07:37.804Z,75.87
2018-10-12T07:08:37.813Z,76.07
2018-10-12T07:09:37.828Z,76.17
2018-10-12T07:10:37.841Z,75.09
2018-10-12T07:11:37.870Z,74.32
2018-10-12T07:12:38.890Z,73.54
2018-10-12T07:13:37.971Z,72.76
2018-10-12T07:14:37.919Z,73.44
2018-10-12T07:15:37.956Z,74.06
2018-10-12T07:16:37.958Z,73.47
2018-10-12T07:17:37.981Z,71.82
2018-10-12T07:18:39.005Z,73.47
2018-10-12T07:19:38.048Z,73.38
2018-10-12T07:20:38.033Z,73.63
2018-10-12T07:21:38.054Z,72.96
2018-10-12T07:22:38.081Z,73.86
2018-10-12T07:23:38.096Z,72.99
2018-10-12T07:24:39.127Z,72.89
2018-10-12T07:25:38.138Z,72.99
2018-10-12T07:26:38.160Z,73.02
2018-10-12T07:27:38.170Z,73.08
2018-10-12T07:28:38.193Z,72.34
2018-10-12T07:29:38.215Z,74.65
2018-10-12T07:30:39.245Z,75.03
2018-10-12T07:31:38.322Z,75.32
2018-10-12T07:32:38.280Z,74.55
2018-10-12T07:33:38.290Z,73.86
2018-10-12T07:34:38.310Z,73.47
2018-10-12T07:35:38.338Z,73.38
2018-10-12T07:36:39.362Z,72.92
2018-10-12T07:37:38.491Z,72.05
2018-10-12T07:38:38.395Z,73.67
2018-10-12T07:39:38.427Z,73.96
2018-10-12T07:40:38.430Z,72.92
2018-10-12T07:41:39.262Z,73.38
2018-10-12T07:42:39.487Z,73.32
2018-10-12T07:43:38.502Z,72.64
2018-10-12T07:44:38.512Z,72.83
2018-10-12T07:45:39.266Z,73.38
2018-10-12T07:46:38.552Z,74.74
2018-10-12T07:47:38.576Z,75.36
2018-10-12T07:48:39.604Z,74.26
2018-10-12T07:49:38.619Z,73.12
2018-10-12T07:50:38.634Z,72.11
2018-10-12T07:51:39.236Z,72.11
2018-10-12T07:52:38.672Z,72.73
2018-10-12T07:53:38.692Z,72.54
2018-10-12T07:54:40.270Z,72.54
2018-10-12T07:55:38.743Z,72.83
2018-10-12T07:56:38.756Z,74.65
2018-10-12T07:57:38.778Z,75.23
2018-10-12T07:58:38.798Z,73.18
2018-10-12T07:59:38.814Z,73.51
2018-10-12T08:00:39.946Z,73.57
2018-10-12T08:01:38.851Z,72.70
2018-10-12T08:02:38.875Z,74.16
2018-10-12T08:03:38.902Z,73.08
2018-10-12T08:04:39.181Z,73.57
2018-10-12T08:05:38.937Z,74.10
2018-10-12T08:06:40.013Z,74.19
2018-10-12T08:07:38.978Z,72.25
2018-10-12T08:08:38.993Z,74.00
2018-10-12T08:09:39.113Z,73.90
2018-10-12T08:10:39.035Z,73.12
2018-10-12T08:11:39.060Z,72.15
2018-10-12T08:12:40.107Z,74.35
2018-10-12T08:13:39.141Z,74.19
2018-10-12T08:14:39.117Z,73.51
2018-10-12T08:15:39.140Z,72.73
2018-10-12T08:16:39.156Z,72.21
2018-10-12T08:17:39.217Z,73.51
2018-10-12T08:18:40.211Z,73.90
2018-10-12T08:19:39.219Z,73.67
2018-10-12T08:20:39.241Z,72.31
2018-10-12T08:21:39.303Z,72.99
2018-10-12T08:22:39.278Z,73.38
2018-10-12T08:23:39.303Z,74.29
2018-10-12T08:24:40.327Z,74.39
2018-10-12T08:25:39.339Z,74.04
2018-10-12T08:26:39.358Z,72.54
2018-10-12T08:27:39.381Z,73.51
2018-10-12T08:28:39.399Z,74.49
2018-10-12T08:29:39.416Z,72.25
2018-10-12T08:30:40.476Z,72.92
2018-10-12T08:31:39.460Z,72.64
2018-10-12T08:32:39.479Z,72.44
2018-10-12T08:33:39.505Z,72.15
2018-10-12T08:34:39.527Z,72.34
2018-10-12T08:35:39.562Z,72.73
2018-10-12T08:36:40.575Z,72.73
2018-10-12T08:37:39.585Z,71.99
2018-10-12T08:38:39.602Z,71.21
2018-10-12T08:39:39.692Z,71.50
2018-10-12T08:40:39.646Z,71.80
2018-10-12T08:41:39.728Z,71.80
2018-10-12T08:42:40.708Z,71.70
2018-10-12T08:43:39.701Z,72.19
2018-10-12T08:44:39.749Z,70.95
2018-10-12T08:45:39.767Z,71.54
2018-10-12T08:46:39.774Z,71.83
2018-10-12T08:47:39.829Z,71.64
2018-10-12T08:48:40.823Z,70.37
2018-10-12T08:49:39.845Z,70.72
2018-10-12T08:50:39.850Z,70.17
2018-10-12T08:51:39.892Z,70.07
2018-10-12T08:52:39.893Z,70.72
2018-10-12T08:53:39.913Z,70.23
2018-10-12T08:54:40.998Z,70.62
2018-10-12T08:55:40.051Z,70.92
2018-10-12T08:56:39.997Z,72.19
2018-10-12T08:57:39.995Z,71.73
2018-10-12T08:58:40.024Z,72.41
2018-10-12T08:59:40.050Z,71.80
2018-10-12T09:00:41.110Z,73.00
2018-10-12T09:01:40.109Z,72.31
2018-10-12T09:02:40.104Z,71.92
2018-10-12T09:03:40.123Z,74.23
2018-10-12T09:04:40.162Z,74.82
2018-10-12T09:05:40.163Z,73.35
2018-10-12T09:06:41.219Z,73.29
2018-10-12T09:07:40.311Z,72.96
2018-10-12T09:08:40.231Z,74.23
2018-10-12T09:09:40.871Z,73.55
2018-10-12T09:10:40.271Z,73.16
2018-10-12T09:11:40.289Z,72.67
2018-10-12T09:12:41.364Z,73.55
2018-10-12T09:13:40.327Z,73.45
2018-10-12T09:14:40.355Z,72.86
2018-10-12T09:15:40.374Z,72.80
2018-10-12T09:16:40.416Z,72.28
2018-10-12T09:17:40.421Z,72.38
2018-10-12T09:18:41.455Z,72.09
2018-10-12T09:19:40.460Z,72.57
2018-10-12T09:20:40.508Z,72.38
2018-10-12T09:21:40.537Z,72.38
2018-10-12T09:22:40.521Z,71.99
2018-10-12T09:23:40.542Z,73.06
2018-10-12T09:24:41.571Z,73.84
2018-10-12T09:25:40.581Z,74.82
2018-10-12T09:26:40.605Z,74.82
2018-10-12T09:27:40.628Z,74.91
2018-10-12T09:28:40.643Z,74.10
2018-10-12T09:29:40.668Z,74.78
2018-10-12T09:30:41.695Z,76.14
2018-10-12T09:31:40.708Z,76.50
2018-10-12T09:32:40.724Z,76.10
2018-10-12T09:33:40.748Z,76.59
2018-10-12T09:34:40.784Z,77.86
2018-10-12T09:35:40.863Z,77.47
2018-10-12T09:36:41.920Z,76.14
2018-10-12T09:37:40.826Z,75.62
2018-10-12T09:38:40.853Z,76.59
2018-10-12T09:39:40.869Z,76.10
2018-10-12T09:40:40.886Z,75.91
2018-10-12T09:41:40.924Z,75.75
2018-10-12T09:42:41.941Z,76.10
2018-10-12T09:43:40.950Z,75.71
2018-10-12T09:44:40.976Z,75.26
2018-10-12T09:45:41.005Z,74.45
2018-10-12T09:46:41.018Z,74.65
2018-10-12T09:47:41.032Z,74.93
2018-10-12T09:48:42.062Z,74.74
2018-10-12T09:49:41.075Z,75.13
2018-10-12T09:50:41.091Z,75.46
2018-10-12T09:51:41.115Z,75.46
